Etusivu
METAR-TAF:

METAR-TAF

Lentoasemat :

Hydaburg, Alaska, Yhdysvallat

Leveyspiiri: 55-12N, Pituuspiiri: 132-50W, korkeus merenpinnasta: 0 m

Tämänhetkinen sää

Tämä raportti tehtiin 14 tuntia ja 4 minuuttia sitten, kello 03.56 UTC
tyyntä
Lämpötila 6°C
Kosteus 87%
Ilmanpaine 1008 hPa
Näkyvyys: 6.4 km
selkeää
utua

METAR: PAHY 210356Z AUTO 00000KT 4SM BR CLR 06/04 A2978 RMK AO2 SLP082 T00560044 $

Aika: 10:00 (18:00 UTC)


TAF: puuttuu

Säähavainnot ja -ennusteet yli 4000 lentoasemalta (METAR- ja TAF-raportit).

Käytössä olevat sääasemat on merkitty karttaan keltaisilla ja punaisilla pisteillä.

Aseta hiiri pisteen päälle nähdäksesi sääaseman nimen.

Klikkaa sitten nähdäksesi säähavainnot ja -ennusteet.

Kartan vaihtaminen: klikkaa mustalla rastilla varustettuja vihreitä pisteitä, niin voit zoomata sisään; viivalla varustettua vihreää pistettä, niin voit zoomata ulos tai vihreitä nuolia, niin pääset viereisille kartoille.


METAR-TAF: